Hoole, United Kingdom
Current Conditions -  °F | °C
As of 8:50 PM on Friday 19 Dec 2014 (Local Time) from EGNR Reporting Station
Scattered Clouds Scattered Clouds  
Wind Chill: 39°   Ceiling: Unl
Heat Index: 46°   Visibility: 6mi
Dew Point: 37°   Wind: 17mph
Humidity: 71%   Direction: 270°W
Pressure: 30.09"   Gusts: NA
Location:  53.2°N, 2.88°W
Report Text: EGNR 192050Z 27015KT 240V300 9999 SCT035 08/03 Q1019
Loading
Personal Weather Stations






























Interactive Weather Map New forecast layout! Learn more

10-Day Weather Forecast

Advertisements
Track Severe Weather on mobile